Time;durP1;ratioP1;P1;durP2;ratioP2;P2;SDS_P1;SDS_P2;PMS_P1;PMS_P2;Temp;Humidity;BMP_temperature;BMP_pressure;BME280_temperature;BME280_humidity;BME280_pressure;Samples;Min_cycle;Max_cycle;Signal;HPM_P1;HPM_P2
2021/08/05 00:01:56;;;;;;;3.80;3.50;;;15.50;99.90;;;;;;5152834;27;20621;-87
2021/08/05 00:04:23;;;;;;;3.47;2.93;;;15.50;99.90;;;;;;5149757;27;21011;-87
2021/08/05 00:06:50;;;;;;;2.93;2.73;;;15.50;99.90;;;;;;5153842;27;20631;-87
2021/08/05 00:09:17;;;;;;;3.27;2.97;;;15.50;99.90;;;;;;5152449;27;20650;-88
2021/08/05 00:11:44;;;;;;;3.47;3.20;;;15.50;99.90;;;;;;5152545;27;21208;-87
2021/08/05 00:14:13;;;;;;;3.90;3.20;;;15.60;99.90;;;;;;5152825;27;20602;-88
2021/08/05 00:16:40;;;;;;;5.00;3.57;;;15.60;99.90;;;;;;5153007;27;20975;-88
2021/08/05 00:19:08;;;;;;;3.50;3.20;;;15.60;99.90;;;;;;5148970;27;20641;-87
2021/08/05 00:21:35;;;;;;;3.80;3.50;;;15.60;99.90;;;;;;5151847;27;21061;-88
2021/08/05 00:24:02;;;;;;;3.77;3.47;;;15.60;99.90;;;;;;5152791;27;20625;-88
2021/08/05 00:26:29;;;;;;;3.70;3.40;;;15.60;99.90;;;;;;5152492;27;20713;-87
2021/08/05 00:28:56;;;;;;;3.33;3.03;;;15.50;99.90;;;;;;5152215;27;20637;-88
2021/08/05 00:31:25;;;;;;;4.23;3.80;;;15.40;99.90;;;;;;5151570;27;20617;-87
2021/08/05 00:33:52;;;;;;;3.27;3.07;;;15.40;99.90;;;;;;5147951;27;20746;-87
2021/08/05 00:36:19;;;;;;;4.10;3.80;;;15.40;99.90;;;;;;5152687;27;20675;-88
2021/08/05 00:38:46;;;;;;;4.13;3.80;;;15.40;99.90;;;;;;5149584;27;21861;-88
2021/08/05 00:41:15;;;;;;;3.40;2.90;;;15.40;99.90;;;;;;5148262;27;20637;-86
2021/08/05 00:43:42;;;;;;;2.90;2.70;;;15.40;99.90;;;;;;5152692;27;20633;-87
2021/08/05 00:46:09;;;;;;;4.33;3.93;;;15.40;99.90;;;;;;5152083;27;20716;-87
2021/08/05 00:48:38;;;;;;;3.90;3.40;;;15.40;99.90;;;;;;5147887;27;20740;-87
2021/08/05 00:51:05;;;;;;;3.40;3.20;;;15.40;99.90;;;;;;5151997;27;20722;-87
2021/08/05 00:53:32;;;;;;;4.70;3.73;;;15.40;99.90;;;;;;5151867;27;20617;-87
2021/08/05 00:55:59;;;;;;;5.83;3.60;;;15.40;99.90;;;;;;5151543;27;20754;-87
2021/08/05 00:58:26;;;;;;;3.93;3.60;;;15.40;99.90;;;;;;5152282;27;20610;-87
2021/08/05 01:01:00;;;;;;;4.07;3.40;;;15.30;99.90;;;;;;5151428;27;20610;-88
2021/08/05 01:03:35;;;;;;;3.10;2.90;;;15.30;99.90;;;;;;5147708;27;20640;-86
2021/08/05 01:06:14;;;;;;;3.73;3.43;;;15.30;99.90;;;;;;5151887;27;20632;-86
2021/08/05 01:08:46;;;;;;;3.40;3.10;;;15.30;99.90;;;;;;5151463;27;20625;-87
2021/08/05 01:11:21;;;;;;;3.83;3.50;;;15.30;99.90;;;;;;5151999;27;21215;-87
2021/08/05 01:13:55;;;;;;;3.63;3.33;;;15.30;99.90;;;;;;5152689;27;20670;-87
2021/08/05 01:16:26;;;;;;;3.37;3.10;;;15.40;99.90;;;;;;5152435;27;20637;-87
2021/08/05 01:18:59;;;;;;;3.20;3.00;;;15.40;99.90;;;;;;5150092;27;20614;-87
2021/08/05 01:21:42;;;;;;;3.60;3.30;;;15.30;99.90;;;;;;5148524;27;20741;-87
2021/08/05 01:24:12;;;;;;;3.70;3.40;;;15.30;99.90;;;;;;5151859;27;20733;-87
2021/08/05 01:26:57;;;;;;;3.73;3.43;;;15.30;99.90;;;;;;5151891;27;20621;-87
2021/08/05 01:29:25;;;;;;;3.57;3.27;;;15.30;99.90;;;;;;5131051;28;20611;-87
2021/08/05 01:31:55;;;;;;;5.30;3.40;;;15.30;99.90;;;;;;5143720;27;21185;-87
2021/08/05 01:34:24;;;;;;;4.57;3.73;;;15.30;99.90;;;;;;5147000;27;20693;-87
2021/08/05 01:36:53;;;;;;;4.50;4.10;;;15.30;99.90;;;;;;5151743;27;20694;-87
2021/08/05 01:39:22;;;;;;;3.70;3.40;;;15.20;99.90;;;;;;5151750;27;20662;-87
2021/08/05 01:41:52;;;;;;;3.87;3.13;;;15.20;99.90;;;;;;5151202;27;20660;-87
2021/08/05 01:44:20;;;;;;;3.37;3.10;;;15.20;99.90;;;;;;5152306;27;20610;-87
2021/08/05 01:46:49;;;;;;;4.60;3.57;;;15.20;99.90;;;;;;5152084;27;20674;-87
2021/08/05 01:49:20;;;;;;;4.40;4.00;;;15.20;99.90;;;;;;5146948;27;21099;-87
2021/08/05 01:51:53;;;;;;;4.27;3.87;;;15.20;99.90;;;;;;5151846;27;20621;-87
2021/08/05 01:54:22;;;;;;;4.23;3.87;;;15.30;99.90;;;;;;5151888;27;21272;-88
2021/08/05 01:56:55;;;;;;;5.07;3.73;;;15.30;99.90;;;;;;5150721;27;20637;-87
2021/08/05 01:59:23;;;;;;;5.33;4.80;;;15.30;99.90;;;;;;5151576;27;20670;-87
2021/08/05 02:01:51;;;;;;;5.53;4.60;;;15.20;99.90;;;;;;5150758;27;20617;-87
2021/08/05 02:04:31;;;;;;;6.43;5.13;;;15.30;99.90;;;;;;5151639;27;20644;-87
2021/08/05 02:07:06;;;;;;;6.10;5.50;;;15.30;99.90;;;;;;5127884;28;21025;-88
2021/08/05 02:09:41;;;;;;;7.10;6.50;;;15.40;99.90;;;;;;5132459;27;21028;-88
2021/08/05 02:12:10;;;;;;;4.63;4.23;;;15.40;99.90;;;;;;5131546;27;20632;-87
2021/08/05 02:14:40;;;;;;;6.47;5.70;;;15.40;99.90;;;;;;5147704;27;20625;-88
2021/08/05 02:17:10;;;;;;;7.20;5.40;;;15.40;99.90;;;;;;5148508;27;20661;-88
2021/08/05 02:19:40;;;;;;;4.60;4.20;;;15.40;99.90;;;;;;5150292;27;20632;-88
2021/08/05 02:22:09;;;;;;;5.23;4.77;;;15.40;99.90;;;;;;5152063;27;20633;-88
2021/08/05 02:24:39;;;;;;;4.97;4.57;;;15.40;99.90;;;;;;5155364;27;21032;-88
2021/08/05 02:27:07;;;;;;;4.93;4.53;;;15.40;99.90;;;;;;5155149;27;20618;-88
2021/08/05 02:29:38;;;;;;;4.03;3.70;;;15.40;99.90;;;;;;5154306;27;20629;-88
2021/08/05 02:32:08;;;;;;;4.20;3.90;;;15.50;99.90;;;;;;5153658;27;20650;-87
2021/08/05 02:34:37;;;;;;;4.43;4.00;;;15.40;99.90;;;;;;5154794;27;20648;-87
2021/08/05 02:37:06;;;;;;;5.53;4.67;;;15.30;99.90;;;;;;5150657;27;20661;-87
2021/08/05 02:39:35;;;;;;;5.30;4.73;;;15.20;99.90;;;;;;5153838;27;21019;-87
2021/08/05 02:42:04;;;;;;;6.03;4.97;;;15.20;99.90;;;;;;5154457;27;20622;-88
2021/08/05 02:44:34;;;;;;;4.33;3.93;;;15.20;99.90;;;;;;5154808;27;20626;-88
2021/08/05 02:47:05;;;;;;;5.60;5.10;;;15.10;99.90;;;;;;5154427;27;20674;-87
2021/08/05 02:49:34;;;;;;;5.10;4.70;;;15.10;99.90;;;;;;5154716;27;20653;-87
2021/08/05 02:52:02;;;;;;;4.67;4.27;;;15.10;99.90;;;;;;5154731;27;20654;-87
2021/08/05 02:54:29;;;;;;;4.60;4.10;;;15.20;99.90;;;;;;5150895;27;20648;-87
2021/08/05 02:56:57;;;;;;;5.77;4.67;;;15.10;99.90;;;;;;5153624;27;21235;-87
2021/08/05 02:59:27;;;;;;;5.30;4.80;;;15.10;99.90;;;;;;5154508;27;20970;-88
2021/08/05 03:01:54;;;;;;;7.00;4.70;;;15.10;99.90;;;;;;5154372;27;20614;-88
2021/08/05 03:04:23;;;;;;;4.57;3.93;;;15.20;99.90;;;;;;5154537;27;20624;-88
2021/08/05 03:06:50;;;;;;;4.90;4.50;;;15.20;99.90;;;;;;5154595;27;20616;-87
2021/08/05 03:09:16;;;;;;;4.20;3.80;;;15.20;99.90;;;;;;5152677;27;20597;-87
2021/08/05 03:11:43;;;;;;;4.67;4.27;;;15.10;99.90;;;;;;5151900;27;21076;-87
2021/08/05 03:14:11;;;;;;;3.63;3.40;;;15.10;99.90;;;;;;5154113;27;20633;-88
2021/08/05 03:16:38;;;;;;;4.07;3.77;;;15.10;99.90;;;;;;5154348;27;20653;-87
2021/08/05 03:19:05;;;;;;;4.43;3.70;;;15.10;99.90;;;;;;5153924;27;20617;-88
2021/08/05 03:21:34;;;;;;;4.23;3.83;;;15.00;99.90;;;;;;5154206;27;20720;-87
2021/08/05 03:24:01;;;;;;;7.27;4.33;;;15.00;99.90;;;;;;5151416;27;20640;-87
2021/08/05 03:26:28;;;;;;;4.80;4.03;;;15.00;99.90;;;;;;5152077;27;20717;-88
2021/08/05 03:28:55;;;;;;;4.53;4.13;;;15.00;99.90;;;;;;5153925;27;20730;-87
2021/08/05 03:31:22;;;;;;;4.87;4.30;;;15.00;99.90;;;;;;5153053;27;21268;-87
2021/08/05 03:33:50;;;;;;;4.43;4.03;;;14.90;99.90;;;;;;5154070;27;20614;-88
2021/08/05 03:36:17;;;;;;;5.50;5.00;;;14.90;99.90;;;;;;5153587;27;20646;-87
2021/08/05 03:38:45;;;;;;;5.87;3.87;;;15.00;99.90;;;;;;5153066;27;20625;-87
2021/08/05 03:41:12;;;;;;;4.63;4.00;;;14.90;99.90;;;;;;5150046;27;20617;-87
2021/08/05 03:43:41;;;;;;;4.67;4.27;;;14.80;99.90;;;;;;5153446;27;20614;-87
2021/08/05 03:46:08;;;;;;;4.47;4.07;;;14.80;99.90;;;;;;5153862;27;20645;-87
2021/08/05 03:48:35;;;;;;;6.93;5.80;;;14.90;99.90;;;;;;5153343;27;20621;-87
2021/08/05 03:51:03;;;;;;;4.83;4.43;;;14.90;99.90;;;;;;5152913;27;20718;-88
2021/08/05 03:53:30;;;;;;;4.97;4.57;;;14.90;99.90;;;;;;5153048;27;20609;-87
2021/08/05 03:55:58;;;;;;;5.57;5.07;;;14.90;99.90;;;;;;5148712;27;20661;-87
2021/08/05 03:58:25;;;;;;;8.60;4.87;;;14.90;99.90;;;;;;5153298;27;20632;-88
2021/08/05 04:00:52;;;;;;;6.53;4.83;;;14.90;99.90;;;;;;5152992;27;20614;-87
2021/08/05 04:03:21;;;;;;;5.60;4.97;;;15.00;99.90;;;;;;5152514;27;20625;-87
2021/08/05 04:05:48;;;;;;;9.40;5.20;;;15.00;99.90;;;;;;5153250;27;20625;-88
2021/08/05 04:08:15;;;;;;;5.60;5.10;;;15.10;99.90;;;;;;5153141;27;20628;-87
2021/08/05 04:10:42;;;;;;;5.67;5.27;;;15.10;99.90;;;;;;5149825;27;20674;-88
2021/08/05 04:13:12;;;;;;;5.70;4.87;;;15.20;99.90;;;;;;5152403;27;20989;-88
2021/08/05 04:15:39;;;;;;;6.33;5.77;;;15.20;99.90;;;;;;5153091;27;21237;-88
2021/08/05 04:18:06;;;;;;;5.90;5.30;;;15.30;99.90;;;;;;5153417;27;20666;-88
2021/08/05 04:20:33;;;;;;;9.10;5.30;;;15.30;99.90;;;;;;5152704;27;21243;-87
2021/08/05 04:23:01;;;;;;;6.63;6.03;;;15.30;99.90;;;;;;5152717;27;20607;-88
2021/08/05 04:25:28;;;;;;;6.90;6.30;;;15.30;99.90;;;;;;5147871;27;21001;-88
2021/08/05 04:27:55;;;;;;;6.00;5.53;;;15.30;99.90;;;;;;5152306;27;20624;-88
2021/08/05 04:30:25;;;;;;;6.20;5.60;;;15.40;99.90;;;;;;5152617;27;20617;-89
2021/08/05 04:32:52;;;;;;;6.47;5.80;;;15.40;99.90;;;;;;5152433;27;21268;-88
2021/08/05 04:35:19;;;;;;;5.90;5.30;;;15.40;99.90;;;;;;5152751;27;20687;-87
2021/08/05 04:37:52;;;;;;;5.40;4.90;;;15.40;99.90;;;;;;5152253;27;20650;-88
2021/08/05 04:40:19;;;;;;;5.83;5.33;;;15.40;99.90;;;;;;5151566;27;20625;-88
2021/08/05 04:42:47;;;;;;;5.50;5.00;;;15.30;99.90;;;;;;5151721;27;20614;-88
2021/08/05 04:45:17;;;;;;;8.20;5.90;;;15.30;99.90;;;;;;5152340;27;20625;-89
2021/08/05 04:47:57;;;;;;;7.60;5.80;;;15.40;99.90;;;;;;5148766;27;20626;-89
2021/08/05 04:50:25;;;;;;;8.70;5.50;;;15.50;99.90;;;;;;5152244;27;21225;-89
2021/08/05 04:52:52;;;;;;;6.10;5.60;;;15.50;99.90;;;;;;5152143;27;20758;-88
2021/08/05 04:55:19;;;;;;;5.97;5.37;;;15.50;99.90;;;;;;5151523;27;20621;-89
2021/08/05 04:57:51;;;;;;;7.13;6.43;;;15.50;99.90;;;;;;5152078;27;21317;-89
2021/08/05 05:00:23;;;;;;;7.30;6.33;;;15.50;99.90;;;;;;5151803;27;20617;-89
2021/08/05 05:02:50;;;;;;;6.47;5.87;;;15.60;99.90;;;;;;5151556;27;20627;-90
2021/08/05 05:05:20;;;;;;;6.00;5.47;;;15.60;99.90;;;;;;5151361;27;20680;-90
2021/08/05 05:07:47;;;;;;;7.10;6.40;;;15.60;99.90;;;;;;5152280;27;21224;-89
2021/08/05 05:10:14;;;;;;;7.33;5.30;;;15.60;99.90;;;;;;5151226;27;20980;-89
2021/08/05 05:12:42;;;;;;;5.43;4.90;;;15.70;99.90;;;;;;5151521;27;21192;-88
2021/08/05 05:15:11;;;;;;;6.33;5.73;;;15.70;99.90;;;;;;5152203;27;20622;-90
2021/08/05 05:17:39;;;;;;;5.87;4.50;;;15.70;99.90;;;;;;5151453;27;20653;-89
2021/08/05 05:20:08;;;;;;;6.13;5.53;;;15.70;99.90;;;;;;5151615;27;21161;-88
2021/08/05 05:22:37;;;;;;;5.70;5.10;;;15.70;99.90;;;;;;5150962;27;20606;-90
2021/08/05 05:25:05;;;;;;;5.20;4.73;;;15.70;99.90;;;;;;5152124;27;20629;-89
2021/08/05 05:27:32;;;;;;;6.27;5.67;;;15.60;99.90;;;;;;5152370;27;20613;-87
2021/08/05 05:30:01;;;;;;;6.13;4.83;;;15.70;99.90;;;;;;5152477;27;21242;-88
2021/08/05 05:32:28;;;;;;;6.30;5.50;;;15.70;99.90;;;;;;5152335;27;20625;-88
2021/08/05 05:34:56;;;;;;;5.20;4.70;;;15.70;99.90;;;;;;5152142;27;20601;-89
2021/08/05 05:37:24;;;;;;;5.67;5.07;;;15.70;99.90;;;;;;5151324;27;21233;-89
2021/08/05 05:39:56;;;;;;;5.80;5.20;;;15.60;99.90;;;;;;5147185;27;20618;-88
2021/08/05 05:42:30;;;;;;;6.90;6.20;;;15.60;99.90;;;;;;5150985;27;20618;-90
2021/08/05 05:44:59;;;;;;;11.80;5.00;;;15.70;99.90;;;;;;5146645;27;20621;-88
2021/08/05 05:47:26;;;;;;;6.30;4.97;;;15.80;99.90;;;;;;5140677;27;20694;-88
2021/08/05 05:49:54;;;;;;;6.50;5.30;;;15.70;99.90;;;;;;5148516;27;21241;-88
2021/08/05 05:52:22;;;;;;;5.63;5.13;;;15.60;99.90;;;;;;5151625;27;20713;-89
2021/08/05 05:54:49;;;;;;;5.20;4.70;;;15.70;99.90;;;;;;5153513;27;21173;-87
2021/08/05 05:57:17;;;;;;;5.50;4.90;;;15.70;99.90;;;;;;5155360;27;20640;-88
2021/08/05 05:59:44;;;;;;;5.47;4.50;;;15.60;99.90;;;;;;5154397;27;20609;-88
2021/08/05 06:02:11;;;;;;;5.80;5.30;;;15.60;99.90;;;;;;5155274;27;20617;-87
2021/08/05 06:04:41;;;;;;;5.47;4.70;;;15.60;99.90;;;;;;5155754;27;20617;-87
2021/08/05 06:07:08;;;;;;;4.80;4.40;;;15.60;99.90;;;;;;5155196;27;20690;-87
2021/08/05 06:09:35;;;;;;;7.13;6.53;;;15.70;99.90;;;;;;5151161;27;20679;-87
2021/08/05 06:12:02;;;;;;;5.53;5.00;;;15.80;99.90;;;;;;5154352;27;20629;-88
2021/08/05 06:14:30;;;;;;;5.83;5.03;;;15.90;99.90;;;;;;5155291;27;20614;-87
2021/08/05 06:16:57;;;;;;;6.03;5.17;;;16.10;99.90;;;;;;5154094;27;20735;-89
2021/08/05 06:19:25;;;;;;;5.40;4.90;;;16.20;99.90;;;;;;5154082;27;21248;-88
2021/08/05 06:21:52;;;;;;;7.80;5.17;;;16.40;99.90;;;;;;5153615;27;20733;-87
2021/08/05 06:24:19;;;;;;;4.97;4.47;;;16.60;99.90;;;;;;5154319;27;20601;-87
2021/08/05 06:26:48;;;;;;;6.43;4.60;;;16.60;99.90;;;;;;5155951;27;20775;-88
2021/08/05 06:29:15;;;;;;;7.23;4.63;;;16.60;99.90;;;;;;5155948;27;20201;-87
2021/08/05 06:31:44;;;;;;;4.73;3.93;;;16.60;99.90;;;;;;5154889;27;20964;-87
2021/08/05 06:34:11;;;;;;;5.03;4.60;;;16.60;99.90;;;;;;5155369;27;20618;-87
2021/08/05 06:36:39;;;;;;;6.83;4.97;;;16.60;99.90;;;;;;5154124;27;20741;-88
2021/08/05 06:39:06;;;;;;;5.57;5.07;;;16.80;99.90;;;;;;5154944;27;20619;-89
2021/08/05 06:41:36;;;;;;;5.60;4.57;;;16.80;99.90;;;;;;5152225;27;20617;-88
2021/08/05 06:44:03;;;;;;;4.67;4.27;;;16.90;99.90;;;;;;5154066;27;21019;-88
2021/08/05 06:46:30;;;;;;;5.00;4.50;;;17.10;99.90;;;;;;5154157;27;20959;-86
2021/08/05 06:48:58;;;;;;;5.80;3.83;;;17.10;99.90;;;;;;5146985;27;20611;-87
2021/08/05 06:51:25;;;;;;;6.23;5.00;;;17.20;99.90;;;;;;5153163;27;20653;-88
2021/08/05 06:53:53;;;;;;;5.00;4.00;;;17.40;99.90;;;;;;5153906;27;20627;-87
2021/08/05 06:56:20;;;;;;;6.35;4.28;;;17.50;99.90;;;;;;5152088;27;20740;-86
2021/08/05 06:58:47;;;;;;;5.93;5.33;;;17.50;99.90;;;;;;5138122;27;20204;-87
2021/08/05 07:01:14;;;;;;;4.40;3.33;;;17.50;99.90;;;;;;5144407;27;20655;-87
2021/08/05 07:03:41;;;;;;;4.30;3.43;;;17.60;99.90;;;;;;5153025;27;20996;-87
2021/08/05 07:06:09;;;;;;;5.13;3.70;;;17.60;99.90;;;;;;5153664;27;20637;-87
2021/08/05 07:08:38;;;;;;;5.47;4.43;;;17.70;99.90;;;;;;5154888;27;20660;-88
2021/08/05 07:11:05;;;;;;;3.47;3.27;;;17.90;99.90;;;;;;5154110;27;20628;-87
2021/08/05 07:13:32;;;;;;;4.67;3.60;;;18.00;99.90;;;;;;5153566;27;20668;-86
2021/08/05 07:15:59;;;;;;;4.43;3.30;;;18.00;99.90;;;;;;5154387;27;20631;-86
2021/08/05 07:18:26;;;;;;;4.00;3.60;;;18.10;99.90;;;;;;5153564;27;21154;-88
2021/08/05 07:20:56;;;;;;;3.60;3.30;;;18.10;99.90;;;;;;5142558;27;20619;-88
2021/08/05 07:23:25;;;;;;;3.53;3.23;;;18.20;99.90;;;;;;5133092;27;20657;-87
2021/08/05 07:25:52;;;;;;;4.43;3.30;;;18.10;99.90;;;;;;5140197;27;20617;-87
2021/08/05 07:28:19;;;;;;;3.40;3.10;;;18.10;99.90;;;;;;5153937;27;20713;-89
2021/08/05 07:30:47;;;;;;;3.23;2.90;;;18.30;99.90;;;;;;5153854;27;20629;-88
2021/08/05 07:33:14;;;;;;;3.47;3.17;;;18.40;99.90;;;;;;5152452;27;20625;-88
2021/08/05 07:35:41;;;;;;;3.90;3.60;;;18.30;99.90;;;;;;5153461;27;20624;-89
2021/08/05 07:38:08;;;;;;;3.50;3.20;;;18.40;99.90;;;;;;5147532;27;20683;-89
2021/08/05 07:40:36;;;;;;;4.43;3.10;;;18.50;99.90;;;;;;5148008;27;20618;-87
2021/08/05 07:43:04;;;;;;;3.17;2.87;;;18.60;99.90;;;;;;5154255;27;20620;-88
2021/08/05 07:45:37;;;;;;;4.27;2.90;;;18.70;99.90;;;;;;5154308;27;20717;-89
2021/08/05 07:48:04;;;;;;;3.97;3.57;;;18.80;99.20;;;;;;5153504;27;20755;-88
2021/08/05 07:50:31;;;;;;;2.70;2.50;;;18.80;99.80;;;;;;5152881;27;20617;-88
2021/08/05 07:52:58;;;;;;;2.87;2.67;;;18.90;99.80;;;;;;5136783;27;20673;-88
2021/08/05 07:55:27;;;;;;;4.80;3.50;;;18.60;99.90;;;;;;5133449;27;20614;-88
2021/08/05 07:57:55;;;;;;;3.40;3.03;;;18.80;99.90;;;;;;5133086;27;20657;-87
2021/08/05 08:00:22;;;;;;;5.90;3.27;;;19.00;99.20;;;;;;5132984;27;20663;-87
2021/08/05 08:02:49;;;;;;;3.57;3.27;;;19.00;99.90;;;;;;5132042;27;20631;-88
2021/08/05 08:05:16;;;;;;;4.00;3.00;;;19.10;99.70;;;;;;5131780;27;20623;-88
2021/08/05 08:07:45;;;;;;;3.70;3.07;;;18.90;99.90;;;;;;5132794;27;20602;-87
2021/08/05 08:10:24;;;;;;;3.30;2.50;;;19.10;99.70;;;;;;5132531;27;20983;-92
2021/08/05 08:12:51;;;;;;;3.40;3.10;;;19.10;99.50;;;;;;5132390;27;20630;-87
2021/08/05 08:15:22;;;;;;;4.00;3.70;;;19.30;99.20;;;;;;5132073;27;20610;-88
2021/08/05 08:17:49;;;;;;;2.30;2.10;;;19.20;98.80;;;;;;5131301;27;20707;-89
2021/08/05 08:20:17;;;;;;;2.90;2.70;;;19.20;99.10;;;;;;5132181;27;20963;-89
2021/08/05 08:22:44;;;;;;;2.80;2.50;;;19.40;99.40;;;;;;5132608;27;20625;-88
2021/08/05 08:25:12;;;;;;;3.07;2.80;;;19.40;98.50;;;;;;5132983;27;20672;-89
2021/08/05 08:27:44;;;;;;;4.40;3.07;;;19.40;99.10;;;;;;5145370;27;20686;-89
2021/08/05 08:30:13;;;;;;;4.50;3.13;;;19.60;98.50;;;;;;5132610;27;21013;-88
2021/08/05 08:32:52;;;;;;;3.63;3.30;;;19.60;98.00;;;;;;5132383;27;20614;-91
2021/08/05 08:35:20;;;;;;;3.10;2.90;;;19.70;98.00;;;;;;5157122;27;20717;-89
2021/08/05 08:38:23;;;;;;;2.60;2.40;;;19.60;97.80;;;;;;5148120;27;20762;-90
2021/08/05 08:40:50;;;;;;;3.30;2.70;;;19.70;97.50;;;;;;5136212;27;20630;-90
2021/08/05 08:43:18;;;;;;;2.90;2.60;;;19.70;96.60;;;;;;5152699;27;20610;-90
2021/08/05 08:45:51;;;;;;;3.20;2.63;;;19.70;97.70;;;;;;5153125;27;20665;-89
2021/08/05 08:48:28;;;;;;;3.47;2.70;;;19.60;97.90;;;;;;5149381;27;21202;-90
2021/08/05 08:51:05;;;;;;;3.73;2.93;;;19.70;97.70;;;;;;5152592;27;20624;-92
2021/08/05 08:54:05;;;;;;;3.10;2.90;;;19.90;96.60;;;;;;5153347;27;20637;-91
2021/08/05 08:56:35;;;;;;;2.80;2.60;;;19.80;96.50;;;;;;5149834;27;20630;-91
2021/08/05 08:59:10;;;;;;;2.87;2.60;;;19.80;96.80;;;;;;5152750;27;20706;-90
2021/08/05 09:01:40;;;;;;;4.73;3.27;;;19.70;97.20;;;;;;5152319;27;20715;-90
2021/08/05 09:04:34;;;;;;;4.83;2.90;;;19.80;96.60;;;;;;5153479;27;20682;-89
2021/08/05 09:07:07;;;;;;;2.93;2.73;;;20.00;96.90;;;;;;5147338;27;20635;-90
2021/08/05 09:09:48;;;;;;;2.37;2.23;;;20.20;96.30;;;;;;5152965;27;20620;-91
2021/08/05 09:12:21;;;;;;;2.77;2.57;;;20.10;95.80;;;;;;5152941;27;20613;-91
2021/08/05 09:14:52;;;;;;;3.83;2.40;;;20.10;95.10;;;;;;5152775;27;20666;-90
2021/08/05 09:17:23;;;;;;;2.60;2.40;;;20.10;94.60;;;;;;5152812;27;20631;-90
2021/08/05 09:19:57;;;;;;;1.70;1.60;;;20.20;93.80;;;;;;5152421;27;20645;-90
2021/08/05 09:22:36;;;;;;;3.00;1.87;;;20.40;93.00;;;;;;5152173;27;20656;-88
2021/08/05 09:25:37;;;;;;;2.53;2.33;;;20.50;92.70;;;;;;5153026;27;20608;-91
2021/08/05 09:28:14;;;;;;;1.70;1.60;;;20.80;93.30;;;;;;5150783;27;20673;-89
2021/08/05 09:30:46;;;;;;;1.97;1.87;;;21.10;90.80;;;;;;5153950;27;21113;-91
2021/08/05 09:33:14;;;;;;;1.93;1.83;;;21.30;90.80;;;;;;5157543;27;20726;-89
2021/08/05 09:35:45;;;;;;;2.20;2.00;;;21.40;91.20;;;;;;5154661;27;20628;-87
2021/08/05 09:38:56;;;;;;;2.13;2.00;;;21.40;91.00;;;;;;5156695;27;21316;-91
2021/08/05 09:41:53;;;;;;;2.10;2.00;;;21.60;90.70;;;;;;5131662;27;20632;-89
2021/08/05 09:44:23;;;;;;;2.20;2.00;;;21.70;90.80;;;;;;5156545;27;20732;-90
2021/08/05 09:47:02;;;;;;;2.20;2.00;;;21.90;91.10;;;;;;5156453;27;21186;-90
2021/08/05 09:49:34;;;;;;;2.27;2.17;;;22.00;91.70;;;;;;5155563;27;20683;-90
2021/08/05 09:55:24;;;;;;;2.47;2.27;;;22.10;90.60;;;;;;5140672;27;20994;-91
2021/08/05 09:57:58;;;;;;;2.20;2.00;;;22.50;90.20;;;;;;5155481;27;20662;-87
2021/08/05 10:00:28;;;;;;;2.27;2.07;;;22.50;89.30;;;;;;5154594;27;20709;-88
2021/08/05 10:02:55;;;;;;;2.43;2.23;;;21.90;88.20;;;;;;5156279;27;21203;-86
2021/08/05 10:05:58;;;;;;;1.67;1.57;;;21.90;90.10;;;;;;5156487;27;20604;-91
2021/08/05 10:08:39;;;;;;;3.20;1.80;;;21.90;89.50;;;;;;5153840;27;20610;-90
2021/08/05 10:11:12;;;;;;;2.70;2.50;;;22.10;89.30;;;;;;5154839;27;20677;-89
2021/08/05 10:13:41;;;;;;;1.60;1.50;;;21.90;90.10;;;;;;5155219;27;21187;-88
2021/08/05 10:16:09;;;;;;;2.00;1.90;;;22.00;89.20;;;;;;5155838;27;20633;-86
2021/08/05 10:18:50;;;;;;;2.07;1.93;;;22.00;90.60;;;;;;5154898;27;20647;-92
2021/08/05 10:21:18;;;;;;;2.43;1.70;;;21.90;89.40;;;;;;5155317;27;20746;-88
2021/08/05 10:23:47;;;;;;;1.67;1.57;;;21.70;89.70;;;;;;5156449;27;20621;-90
2021/08/05 10:26:14;;;;;;;2.00;1.90;;;21.70;90.70;;;;;;5143327;27;20677;-89
2021/08/05 10:28:43;;;;;;;1.90;1.80;;;21.90;89.60;;;;;;5155463;27;20615;-89
2021/08/05 10:31:19;;;;;;;1.53;1.37;;;21.80;90.10;;;;;;5155843;27;20607;-91
2021/08/05 10:33:48;;;;;;;1.67;1.57;;;22.10;89.70;;;;;;5155554;27;20639;-88
2021/08/05 10:36:15;;;;;;;2.20;1.47;;;22.40;88.50;;;;;;5155173;27;20627;-90
2021/08/05 10:38:43;;;;;;;1.83;1.50;;;22.10;85.90;;;;;;5154875;27;21280;-90
2021/08/05 10:41:12;;;;;;;1.43;1.33;;;22.00;86.70;;;;;;5152692;27;20608;-89
2021/08/05 10:43:40;;;;;;;1.27;1.17;;;21.70;85.30;;;;;;5152812;27;20615;-88
2021/08/05 10:46:07;;;;;;;1.60;1.50;;;21.70;88.90;;;;;;5153765;27;20665;-89
2021/08/05 10:48:34;;;;;;;1.47;1.37;;;21.60;86.30;;;;;;5149487;27;20787;-89
2021/08/05 10:51:01;;;;;;;1.70;1.33;;;21.60;89.60;;;;;;5153503;27;20630;-89
2021/08/05 10:53:55;;;;;;;1.53;1.43;;;21.30;88.30;;;;;;5153719;27;20653;-90
2021/08/05 10:56:25;;;;;;;1.73;1.30;;;21.20;89.00;;;;;;5134391;27;20643;-90
2021/08/05 10:59:04;;;;;;;2.10;1.53;;;21.20;88.90;;;;;;5144115;27;20662;-90
2021/08/05 11:01:49;;;;;;;1.50;1.40;;;21.10;88.30;;;;;;5154337;27;20730;-90
2021/08/05 11:04:40;;;;;;;1.90;1.77;;;21.90;91.10;;;;;;5153663;27;20611;-89
2021/08/05 11:07:32;;;;;;;0.90;0.90;;;22.70;87.40;;;;;;5140905;27;20658;-86
2021/08/05 11:10:24;;;;;;;1.60;1.50;;;22.80;85.40;;;;;;5154953;27;20647;-90
2021/08/05 11:13:18;;;;;;;1.30;1.20;;;23.10;84.30;;;;;;5153747;27;20675;-90
2021/08/05 11:15:53;;;;;;;1.30;1.20;;;23.70;80.20;;;;;;5154148;27;20625;-91
2021/08/05 11:18:27;;;;;;;1.63;1.50;;;23.50;82.90;;;;;;5154795;27;20651;-90
2021/08/05 11:21:27;;;;;;;1.40;1.30;;;23.20;84.90;;;;;;5154691;27;20609;-89
2021/08/05 11:23:55;;;;;;;2.13;1.83;;;23.00;84.90;;;;;;5154317;27;20657;-91
2021/08/05 11:26:23;;;;;;;3.60;1.60;;;22.90;86.90;;;;;;5154504;27;20618;-89
2021/08/05 11:28:55;;;;;;;1.80;1.70;;;22.70;86.00;;;;;;5154394;27;20606;-87
2021/08/05 11:31:33;;;;;;;1.43;1.33;;;22.50;84.80;;;;;;5153160;27;20644;-89
2021/08/05 11:34:02;;;;;;;1.47;1.37;;;22.60;87.50;;;;;;5133942;27;20606;-88
2021/08/05 11:36:36;;;;;;;1.67;1.57;;;22.80;88.90;;;;;;5142905;27;20631;-89
2021/08/05 11:39:11;;;;;;;1.43;1.20;;;22.40;83.90;;;;;;5154319;27;21274;-91
2021/08/05 11:41:50;;;;;;;1.67;1.57;;;22.70;85.80;;;;;;5154530;27;20613;-90
2021/08/05 11:44:28;;;;;;;1.73;1.63;;;23.00;84.60;;;;;;5154069;27;21170;-89
2021/08/05 11:47:23;;;;;;;1.50;1.40;;;22.60;82.90;;;;;;5154284;27;20960;-88
2021/08/05 11:49:53;;;;;;;1.30;1.20;;;22.60;87.70;;;;;;5150027;27;20646;-89
2021/08/05 11:52:22;;;;;;;2.27;1.70;;;22.70;90.10;;;;;;5152039;27;20961;-89
2021/08/05 11:54:51;;;;;;;1.80;1.70;;;23.00;89.70;;;;;;5153316;27;20649;-91
2021/08/05 11:58:00;;;;;;;1.50;1.40;;;23.20;83.70;;;;;;5153406;27;20717;-91
2021/08/05 12:00:40;;;;;;;2.27;1.70;;;23.40;85.00;;;;;;5141254;27;20682;-90
2021/08/05 12:03:49;;;;;;;3.47;2.67;;;23.30;84.70;;;;;;5153608;27;20641;-92
2021/08/05 12:06:29;;;;;;;1.80;1.70;;;23.60;87.10;;;;;;5143976;27;20671;-91
2021/08/05 12:09:13;;;;;;;1.83;1.73;;;24.60;85.50;;;;;;5153243;27;20618;-91
2021/08/05 12:11:42;;;;;;;1.57;1.47;;;24.50;80.40;;;;;;5154536;27;20637;-88
2021/08/05 12:17:24;;;;;;;1.33;1.23;;;24.50;82.70;;;;;;5153956;27;20742;-92
2021/08/05 12:20:01;;;;;;;1.60;1.50;;;25.50;80.50;;;;;;5153438;27;20722;-90
2021/08/05 12:22:36;;;;;;;1.40;1.30;;;25.60;76.00;;;;;;5152086;27;20666;-91
2021/08/05 12:25:24;;;;;;;1.70;1.60;;;25.40;76.80;;;;;;5152344;27;20653;-90
2021/08/05 12:28:11;;;;;;;2.03;1.87;;;25.80;72.90;;;;;;5149366;27;20621;-90
2021/08/05 12:30:50;;;;;;;1.60;1.50;;;25.40;74.70;;;;;;5152221;27;21010;-91
2021/08/05 12:33:22;;;;;;;1.40;1.23;;;24.60;75.10;;;;;;5152401;27;20617;-90
2021/08/05 12:36:07;;;;;;;1.60;1.43;;;23.90;79.40;;;;;;5150872;27;20774;-89
2021/08/05 12:38:44;;;;;;;1.50;1.40;;;23.50;77.00;;;;;;5152159;27;20693;-90
2021/08/05 12:41:15;;;;;;;1.60;1.50;;;23.10;77.10;;;;;;5152974;27;20609;-89
2021/08/05 12:43:44;;;;;;;1.63;1.50;;;22.80;78.00;;;;;;5152807;27;20628;-89
2021/08/05 12:46:12;;;;;;;1.90;1.70;;;22.50;84.60;;;;;;5152766;27;21010;-89
2021/08/05 12:48:42;;;;;;;1.43;1.33;;;22.30;90.50;;;;;;5152488;27;20616;-88
2021/08/05 12:51:15;;;;;;;2.80;1.50;;;22.00;91.50;;;;;;5152241;27;20620;-89
2021/08/05 12:53:42;;;;;;;1.70;1.47;;;21.70;91.70;;;;;;5152904;27;20660;-88
2021/08/05 12:56:09;;;;;;;4.77;2.10;;;21.50;92.30;;;;;;5152667;27;20676;-88
2021/08/05 12:58:36;;;;;;;1.60;1.50;;;21.20;92.80;;;;;;5152896;27;20637;-88
2021/08/05 13:01:17;;;;;;;1.80;1.70;;;21.10;95.10;;;;;;5151572;27;20650;-88
2021/08/05 13:03:47;;;;;;;2.70;1.50;;;20.90;95.60;;;;;;5144924;27;20649;-88
2021/08/05 13:06:14;;;;;;;1.90;1.80;;;20.60;95.80;;;;;;5134471;27;20608;-89
2021/08/05 13:08:43;;;;;;;1.83;1.60;;;20.50;96.80;;;;;;5152407;27;20611;-88
2021/08/05 13:11:13;;;;;;;1.63;1.53;;;20.20;96.70;;;;;;5151853;27;20653;-88
2021/08/05 13:13:50;;;;;;;1.70;1.60;;;20.20;97.00;;;;;;5151062;27;20626;-89
2021/08/05 13:16:26;;;;;;;1.67;1.57;;;20.00;98.00;;;;;;5151729;27;20630;-91